Time;durP1;ratioP1;P1;durP2;ratioP2;P2;SDS_P1;SDS_P2;PMS_P1;PMS_P2;Temp;Humidity;BMP_temperature;BMP_pressure;BME280_temperature;BME280_humidity;BME280_pressure;Samples;Min_cycle;Max_cycle;Signal;HPM_P1;HPM_P2
2022/04/17 00:00:23;;;;;;;8.00;4.65;;;8.30;96.70;;;;;;5017821;28;20041;-66
2022/04/17 00:02:49;;;;;;;8.05;4.68;;;8.20;97.10;;;;;;5017942;28;20042;-67
2022/04/17 00:05:15;;;;;;;8.65;4.60;;;8.20;97.10;;;;;;5001774;28;20068;-66
2022/04/17 00:07:40;;;;;;;8.52;4.55;;;8.10;97.10;;;;;;5011036;28;20494;-66
2022/04/17 00:10:10;;;;;;;8.30;4.70;;;8.10;97.30;;;;;;4998315;28;20052;-66
2022/04/17 00:12:37;;;;;;;9.25;5.32;;;8.00;97.30;;;;;;4998559;28;20081;-67
2022/04/17 00:15:03;;;;;;;6.65;4.13;;;8.00;97.20;;;;;;4998160;28;20049;-64
2022/04/17 00:17:29;;;;;;;7.68;4.55;;;8.00;97.50;;;;;;4985878;28;20455;-67
2022/04/17 00:19:55;;;;;;;9.43;4.88;;;7.90;97.60;;;;;;5017650;28;20470;-66
2022/04/17 00:22:23;;;;;;;6.60;4.60;;;7.90;98.00;;;;;;5017676;28;20120;-66
2022/04/17 00:24:49;;;;;;;9.63;5.00;;;7.90;97.80;;;;;;5017414;28;20049;-66
2022/04/17 00:27:15;;;;;;;5.90;3.97;;;7.80;98.00;;;;;;4998156;28;20049;-66
2022/04/17 00:29:43;;;;;;;7.38;4.82;;;7.80;98.30;;;;;;4998002;28;20060;-66
2022/04/17 00:32:10;;;;;;;6.82;4.50;;;7.70;98.40;;;;;;4981631;28;20056;-66
2022/04/17 00:34:37;;;;;;;7.07;4.20;;;7.70;98.60;;;;;;4997990;28;20399;-67
2022/04/17 00:37:06;;;;;;;6.85;4.78;;;7.70;98.70;;;;;;4998432;28;20092;-66
2022/04/17 00:39:32;;;;;;;6.75;4.47;;;7.60;98.70;;;;;;5017260;28;20063;-67
2022/04/17 00:42:00;;;;;;;9.02;5.00;;;7.60;99.00;;;;;;5017307;28;20430;-67
2022/04/17 00:44:26;;;;;;;7.47;4.72;;;7.50;99.10;;;;;;5017150;28;20136;-67
2022/04/17 00:46:53;;;;;;;7.50;5.03;;;7.50;99.40;;;;;;5016982;28;20435;-67
2022/04/17 00:49:18;;;;;;;6.65;4.75;;;7.50;99.40;;;;;;4997336;28;20462;-66
2022/04/17 00:51:47;;;;;;;7.93;4.95;;;7.40;99.40;;;;;;5015051;28;20069;-66
2022/04/17 00:54:14;;;;;;;8.00;4.88;;;7.40;99.50;;;;;;4981264;28;20477;-67
2022/04/17 00:56:41;;;;;;;7.30;5.32;;;7.40;99.70;;;;;;5014984;28;20034;-66
2022/04/17 00:59:09;;;;;;;7.43;4.85;;;7.40;99.50;;;;;;5014653;28;20041;-67
2022/04/17 01:01:36;;;;;;;7.35;4.88;;;7.40;99.80;;;;;;5016767;28;20356;-66
2022/04/17 01:04:02;;;;;;;9.23;5.35;;;7.30;99.90;;;;;;5016981;28;20049;-66
2022/04/17 01:06:30;;;;;;;8.75;4.97;;;7.30;99.90;;;;;;5016749;28;20389;-67
2022/04/17 01:08:56;;;;;;;10.75;5.93;;;7.30;99.90;;;;;;4984470;28;20363;-66
2022/04/17 01:11:22;;;;;;;8.55;5.43;;;7.20;99.90;;;;;;4997121;28;20038;-64
2022/04/17 01:13:48;;;;;;;9.60;5.45;;;7.10;99.90;;;;;;4997289;28;20119;-66
2022/04/17 01:16:16;;;;;;;8.23;5.65;;;7.20;99.90;;;;;;4996924;28;20526;-69
2022/04/17 01:19:04;;;;;;;8.65;5.45;;;7.20;99.90;;;;;;5010643;28;20049;-66
2022/04/17 01:21:31;;;;;;;8.63;5.72;;;7.10;99.90;;;;;;5016666;28;20661;-66
2022/04/17 01:27:01;;;;;;;;;;;7.00;99.90;;;;;;5034663;28;20041;-66
2022/04/17 01:29:34;;;;;;;7.78;5.13;;;7.00;99.90;;;;;;4977262;28;19951;-67
2022/04/17 01:32:03;;;;;;;11.25;6.05;;;6.90;99.90;;;;;;4994869;28;20133;-67
2022/04/17 01:34:29;;;;;;;7.22;5.25;;;6.90;99.90;;;;;;4976837;28;20046;-67
2022/04/17 01:36:56;;;;;;;8.63;5.65;;;7.00;99.90;;;;;;4977470;28;20054;-66
2022/04/17 01:39:22;;;;;;;8.07;5.13;;;6.90;99.90;;;;;;4996686;28;20057;-66
2022/04/17 01:41:50;;;;;;;8.07;5.38;;;6.90;99.90;;;;;;4996795;28;20046;-67
2022/04/17 01:44:16;;;;;;;7.60;5.18;;;6.80;99.90;;;;;;4989146;28;20057;-66
2022/04/17 01:46:43;;;;;;;10.00;5.35;;;6.80;99.90;;;;;;5033721;28;20075;-66
2022/04/17 01:49:09;;;;;;;8.77;5.10;;;6.80;99.90;;;;;;4999591;28;20057;-66
2022/04/17 01:51:39;;;;;;;7.97;5.25;;;6.70;99.90;;;;;;5016187;28;20056;-66
2022/04/17 01:54:25;;;;;;;7.65;5.00;;;6.70;99.90;;;;;;5016188;28;20049;-66
2022/04/17 01:56:51;;;;;;;8.77;5.82;;;6.70;99.90;;;;;;5016235;28;20041;-66
2022/04/17 01:59:18;;;;;;;8.35;5.20;;;6.70;99.90;;;;;;5015693;28;20094;-66
2022/04/17 02:01:44;;;;;;;8.02;5.72;;;6.70;99.90;;;;;;5016011;28;20133;-66
2022/04/17 02:04:10;;;;;;;9.98;5.57;;;6.70;99.90;;;;;;5016204;28;20050;-66
2022/04/17 02:06:40;;;;;;;7.32;5.28;;;6.70;99.90;;;;;;5016250;28;20052;-66
2022/04/17 02:09:08;;;;;;;8.38;5.97;;;6.60;99.90;;;;;;5016381;28;20120;-67
2022/04/17 02:11:34;;;;;;;8.93;5.25;;;6.60;99.90;;;;;;4996525;28;20034;-66
2022/04/17 02:14:00;;;;;;;8.15;5.70;;;6.60;99.90;;;;;;4996487;28;20041;-66
2022/04/17 02:16:26;;;;;;;8.45;6.05;;;6.60;99.90;;;;;;4996630;28;20041;-66
2022/04/17 02:18:52;;;;;;;8.18;5.82;;;6.50;99.90;;;;;;5010902;28;20095;-66
2022/04/17 02:21:19;;;;;;;10.68;5.88;;;6.60;99.90;;;;;;5016009;28;20095;-66
2022/04/17 02:23:45;;;;;;;7.78;5.40;;;6.50;99.90;;;;;;5016066;28;20056;-66
2022/04/17 02:26:13;;;;;;;9.90;5.72;;;6.50;99.90;;;;;;5016184;28;20161;-66
2022/04/17 02:28:40;;;;;;;9.70;5.75;;;6.50;99.90;;;;;;5015895;28;20124;-67
2022/04/17 02:31:07;;;;;;;8.02;5.85;;;6.40;99.90;;;;;;5033515;28;20041;-66
2022/04/17 02:33:34;;;;;;;7.50;4.85;;;6.40;99.90;;;;;;5033376;28;20045;-66
2022/04/17 02:35:59;;;;;;;8.52;5.90;;;6.50;99.90;;;;;;5015837;28;20042;-66
2022/04/17 02:38:26;;;;;;;8.60;5.63;;;6.40;99.90;;;;;;5032905;28;20045;-66
2022/04/17 02:40:52;;;;;;;7.30;5.40;;;6.30;99.90;;;;;;5015873;28;20179;-67
2022/04/17 02:43:18;;;;;;;9.07;6.03;;;6.30;99.90;;;;;;4999274;28;20041;-68
2022/04/17 02:45:44;;;;;;;9.20;5.80;;;6.30;99.90;;;;;;5016400;28;20148;-66
2022/04/17 02:48:10;;;;;;;8.48;5.82;;;6.30;99.90;;;;;;5027464;28;20355;-66
2022/04/17 02:50:35;;;;;;;8.90;5.82;;;6.20;99.90;;;;;;5017135;28;20044;-66
2022/04/17 02:53:01;;;;;;;9.98;6.03;;;6.20;99.90;;;;;;4999652;28;20447;-66
2022/04/17 02:55:27;;;;;;;9.95;5.53;;;6.20;99.90;;;;;;4999667;28;20041;-67
2022/04/17 02:57:54;;;;;;;9.10;5.90;;;6.10;99.90;;;;;;5005500;28;20398;-66
2022/04/17 03:00:21;;;;;;;8.88;5.70;;;6.10;99.90;;;;;;5019313;28;20064;-67
2022/04/17 03:05:39;;;;;;;10.25;6.00;;;6.10;99.90;;;;;;5036744;28;20155;-67
2022/04/17 03:08:09;;;;;;;9.30;6.10;;;6.10;99.90;;;;;;5018735;28;20049;-66
2022/04/17 03:10:43;;;;;;;10.18;5.93;;;6.00;99.90;;;;;;5019417;28;20087;-66
2022/04/17 03:13:10;;;;;;;10.82;6.15;;;6.00;99.90;;;;;;5002703;28;20371;-67
2022/04/17 03:15:40;;;;;;;9.07;5.55;;;6.00;99.90;;;;;;5019088;28;20454;-67
2022/04/17 03:18:10;;;;;;;10.02;5.90;;;6.00;99.90;;;;;;5018218;28;20045;-67
2022/04/17 03:20:36;;;;;;;11.00;6.03;;;6.00;99.90;;;;;;5019135;28;20046;-67
2022/04/17 03:23:03;;;;;;;9.40;6.20;;;6.00;99.90;;;;;;5018657;28;20119;-66
2022/04/17 03:25:29;;;;;;;9.02;6.03;;;6.00;99.90;;;;;;5018557;28;20044;-66
2022/04/17 03:27:57;;;;;;;8.82;5.97;;;6.00;99.90;;;;;;5011137;28;20117;-66
2022/04/17 03:30:23;;;;;;;9.90;6.22;;;6.00;99.90;;;;;;4998891;28;20046;-66
2022/04/17 03:32:50;;;;;;;9.52;6.22;;;5.90;99.90;;;;;;4982641;28;20494;-66
2022/04/17 03:35:16;;;;;;;11.40;6.75;;;5.90;99.90;;;;;;4998773;28;20371;-66
2022/04/17 03:37:42;;;;;;;10.52;6.40;;;5.90;99.90;;;;;;5002661;28;20131;-66
2022/04/17 03:40:12;;;;;;;9.07;5.97;;;5.90;99.90;;;;;;5018500;28;20454;-66
2022/04/17 03:42:38;;;;;;;10.30;6.35;;;5.80;99.90;;;;;;5036258;28;20048;-67
2022/04/17 03:45:06;;;;;;;8.93;5.95;;;5.80;99.90;;;;;;5018310;28;20072;-66
2022/04/17 03:47:32;;;;;;;9.07;6.32;;;5.70;99.90;;;;;;5017526;28;20048;-68
2022/04/17 03:49:59;;;;;;;9.55;6.35;;;5.70;99.90;;;;;;5018028;28;20128;-67
2022/04/17 03:52:25;;;;;;;11.10;6.88;;;5.70;99.90;;;;;;5018160;28;20111;-66
2022/04/17 03:54:51;;;;;;;8.45;6.30;;;5.70;99.90;;;;;;5017899;28;20041;-66
2022/04/17 03:57:16;;;;;;;9.70;6.38;;;5.70;99.90;;;;;;5017322;28;20053;-67
2022/04/17 03:59:42;;;;;;;8.73;6.20;;;5.60;99.90;;;;;;5017834;28;20037;-66
2022/04/17 04:02:08;;;;;;;8.48;5.97;;;5.60;99.90;;;;;;5017902;28;20046;-66
2022/04/17 04:04:34;;;;;;;8.85;6.03;;;5.50;99.90;;;;;;5017812;28;20099;-66
2022/04/17 04:07:00;;;;;;;8.95;6.35;;;5.50;99.90;;;;;;5017447;28;20041;-66
2022/04/17 04:09:26;;;;;;;10.43;6.95;;;5.50;99.90;;;;;;5017622;28;20502;-66
2022/04/17 04:11:51;;;;;;;9.00;6.25;;;5.50;99.90;;;;;;5017942;28;20133;-66
2022/04/17 04:14:17;;;;;;;9.15;6.25;;;5.50;99.90;;;;;;5017711;28;20478;-66
2022/04/17 04:16:43;;;;;;;9.75;6.65;;;5.50;99.90;;;;;;5001316;28;20041;-66
2022/04/17 04:19:12;;;;;;;9.48;6.55;;;5.40;99.90;;;;;;5000948;28;20045;-66
2022/04/17 04:21:47;;;;;;;11.85;7.10;;;5.40;99.90;;;;;;5035346;28;20045;-66
2022/04/17 04:24:18;;;;;;;9.65;6.75;;;5.40;99.90;;;;;;5017950;28;20081;-66
2022/04/17 04:28:33;;;;;;;9.45;6.65;;;5.40;99.90;;;;;;5035116;28;20048;-66
2022/04/17 04:29:36;;;;;;;9.90;6.85;;;5.40;99.90;;;;;;5017399;28;20073;-66
2022/04/17 04:32:02;;;;;;;9.73;6.50;;;5.40;99.90;;;;;;5017336;28;20045;-66
2022/04/17 04:34:28;;;;;;;9.82;6.57;;;5.40;99.90;;;;;;5017210;28;20124;-67
2022/04/17 04:36:54;;;;;;;9.68;6.53;;;5.40;99.90;;;;;;5017066;28;20149;-65
2022/04/17 04:39:20;;;;;;;10.70;6.72;;;5.40;99.90;;;;;;5034578;28;20052;-65
2022/04/17 04:41:46;;;;;;;9.40;6.45;;;5.40;99.90;;;;;;5017204;28;20037;-65
2022/04/17 04:44:12;;;;;;;12.40;7.47;;;5.30;99.90;;;;;;5000555;28;20045;-65
2022/04/17 04:46:38;;;;;;;10.23;6.55;;;5.40;99.90;;;;;;5016983;28;20138;-65
2022/04/17 04:51:49;;;;;;;10.32;6.80;;;5.30;99.90;;;;;;4997485;28;20157;-65
2022/04/17 04:54:15;;;;;;;9.85;6.63;;;5.30;99.90;;;;;;4997592;28;20124;-65
2022/04/17 04:56:40;;;;;;;10.13;6.38;;;5.30;99.90;;;;;;4997647;28;20056;-65
2022/04/17 04:59:06;;;;;;;9.45;6.93;;;5.30;99.90;;;;;;5029538;28;20400;-66
2022/04/17 05:01:31;;;;;;;11.15;7.60;;;5.30;99.90;;;;;;5016605;28;20038;-66
2022/04/17 05:03:57;;;;;;;11.02;7.00;;;5.30;99.90;;;;;;5034164;28;20041;-66
2022/04/17 05:06:23;;;;;;;11.60;7.00;;;5.40;99.90;;;;;;5017141;28;20037;-66
2022/04/17 05:08:49;;;;;;;10.25;6.60;;;5.40;99.90;;;;;;5015346;28;20430;-65
2022/04/17 05:11:15;;;;;;;9.50;6.82;;;5.40;99.90;;;;;;5016767;28;20053;-66
2022/04/17 05:13:41;;;;;;;11.35;6.80;;;5.40;99.90;;;;;;5016731;28;20052;-66
2022/04/17 05:16:07;;;;;;;11.35;6.95;;;5.40;99.90;;;;;;5016624;28;20045;-65
2022/04/17 05:18:33;;;;;;;10.80;7.00;;;5.50;99.90;;;;;;5016261;28;20470;-67
2022/04/17 05:20:58;;;;;;;9.73;6.35;;;5.50;99.90;;;;;;5016600;28;20045;-66
2022/04/17 05:23:29;;;;;;;11.25;7.25;;;5.50;99.90;;;;;;5016792;28;20095;-65
2022/04/17 05:25:57;;;;;;;11.10;7.70;;;5.60;99.90;;;;;;5016630;28;20038;-66
2022/04/17 05:28:23;;;;;;;10.80;7.07;;;5.50;99.90;;;;;;5015864;28;20103;-66
2022/04/17 05:30:49;;;;;;;10.70;7.05;;;5.60;99.90;;;;;;5033713;28;20053;-66
2022/04/17 05:33:19;;;;;;;10.50;7.10;;;5.70;99.90;;;;;;5033817;28;20091;-66
2022/04/17 05:35:46;;;;;;;9.05;6.53;;;5.90;99.90;;;;;;5016365;28;20425;-66
2022/04/17 05:38:11;;;;;;;10.55;7.45;;;6.10;99.90;;;;;;5003244;28;20037;-66
2022/04/17 05:40:46;;;;;;;11.05;6.57;;;6.50;99.90;;;;;;5032423;28;20052;-66
2022/04/17 05:43:13;;;;;;;11.32;7.25;;;7.20;99.90;;;;;;5032273;28;20466;-67
2022/04/17 05:45:39;;;;;;;11.55;7.55;;;7.90;99.90;;;;;;5052376;28;20036;-66
2022/04/17 05:48:06;;;;;;;10.60;6.85;;;8.50;99.90;;;;;;5050184;28;20056;-65
2022/04/17 05:50:33;;;;;;;10.25;6.85;;;9.00;99.90;;;;;;5052672;28;20037;-67
2022/04/17 05:52:59;;;;;;;12.40;7.57;;;9.80;99.90;;;;;;5053318;28;20041;-66
2022/04/17 05:55:25;;;;;;;9.27;6.65;;;10.40;99.00;;;;;;5053347;28;20037;-68
2022/04/17 05:57:51;;;;;;;9.70;6.53;;;10.60;98.10;;;;;;5029625;28;20041;-66
2022/04/17 06:00:17;;;;;;;12.02;7.63;;;10.80;97.60;;;;;;5053317;28;20147;-66
2022/04/17 06:02:52;;;;;;;9.88;6.60;;;10.90;96.50;;;;;;5053175;28;20453;-67
2022/04/17 06:05:18;;;;;;;12.13;7.45;;;11.30;96.20;;;;;;5035842;28;20095;-66
2022/04/17 06:07:44;;;;;;;10.10;6.88;;;11.20;95.60;;;;;;5030710;28;20091;-65
2022/04/17 06:10:12;;;;;;;11.77;6.97;;;11.40;95.80;;;;;;4999875;28;20045;-65
2022/04/17 06:12:38;;;;;;;9.93;6.95;;;11.60;94.80;;;;;;5000162;28;20052;-65
2022/04/17 06:15:05;;;;;;;9.80;7.00;;;11.80;95.00;;;;;;5033356;28;20067;-66
2022/04/17 06:17:41;;;;;;;11.50;6.97;;;12.00;94.00;;;;;;5015781;28;20045;-66
2022/04/17 06:20:14;;;;;;;8.90;6.97;;;12.30;93.00;;;;;;5047915;28;20090;-65
2022/04/17 06:22:42;;;;;;;12.15;6.82;;;12.10;93.10;;;;;;5055020;28;20266;-66
2022/04/17 06:25:15;;;;;;;10.05;6.60;;;12.10;92.80;;;;;;5039300;28;20049;-66
2022/04/17 06:27:59;;;;;;;10.13;6.90;;;12.30;92.60;;;;;;5033820;28;20509;-66
2022/04/17 06:30:25;;;;;;;9.93;6.95;;;12.30;92.40;;;;;;5056568;28;20520;-67
2022/04/17 06:32:51;;;;;;;8.52;6.65;;;12.40;92.50;;;;;;5038859;28;20037;-66
2022/04/17 06:35:18;;;;;;;11.10;6.88;;;12.50;92.40;;;;;;5022476;28;20041;-67
2022/04/17 06:37:47;;;;;;;11.90;6.68;;;12.90;92.20;;;;;;5051963;28;20041;-66
2022/04/17 06:40:20;;;;;;;9.88;6.30;;;12.90;91.30;;;;;;5037141;28;20037;-66
2022/04/17 06:42:47;;;;;;;10.60;6.88;;;12.90;91.00;;;;;;5053345;28;20349;-67
2022/04/17 06:45:13;;;;;;;9.88;6.65;;;13.00;91.40;;;;;;5055160;28;20045;-66
2022/04/17 06:47:39;;;;;;;9.32;6.53;;;12.90;91.10;;;;;;5052611;28;20112;-67
2022/04/17 06:50:06;;;;;;;10.10;6.65;;;12.80;90.70;;;;;;5019603;28;20415;-67
2022/04/17 06:52:32;;;;;;;8.13;6.20;;;13.00;90.20;;;;;;5047280;28;20413;-66
2022/04/17 06:54:58;;;;;;;9.02;6.35;;;13.00;90.60;;;;;;5036445;28;20114;-67
2022/04/17 06:57:31;;;;;;;8.18;6.20;;;12.70;90.60;;;;;;5053450;28;20454;-70
2022/04/17 06:59:58;;;;;;;9.32;6.78;;;12.70;91.00;;;;;;5033100;28;20060;-66
2022/04/17 07:02:24;;;;;;;7.65;5.80;;;12.80;90.80;;;;;;5037397;28;20044;-67
2022/04/17 07:04:50;;;;;;;11.68;6.40;;;12.90;91.60;;;;;;5055285;28;20106;-66
2022/04/17 07:07:16;;;;;;;8.63;6.20;;;13.20;91.90;;;;;;5038157;28;20458;-65
2022/04/17 07:09:42;;;;;;;10.27;5.82;;;13.30;92.20;;;;;;5054790;28;20120;-66
2022/04/17 07:12:07;;;;;;;8.95;6.15;;;13.50;92.00;;;;;;5038393;28;20053;-67
2022/04/17 07:14:33;;;;;;;9.35;6.53;;;13.80;90.60;;;;;;5056194;28;20041;-67
2022/04/17 07:16:59;;;;;;;9.73;6.32;;;13.60;90.40;;;;;;5055984;28;20037;-68
2022/04/17 07:19:24;;;;;;;10.10;6.68;;;13.50;90.30;;;;;;5038071;28;20112;-67
2022/04/17 07:21:50;;;;;;;9.52;6.60;;;13.30;90.40;;;;;;5019015;28;20048;-65
2022/04/17 07:24:16;;;;;;;8.45;5.95;;;13.00;90.80;;;;;;5036198;28;20118;-67
2022/04/17 07:26:42;;;;;;;8.70;6.32;;;12.80;91.30;;;;;;5035691;28;20041;-66
2022/04/17 07:29:08;;;;;;;9.35;6.82;;;12.70;90.90;;;;;;5036033;28;20045;-66
2022/04/17 07:31:34;;;;;;;11.63;6.07;;;12.60;91.10;;;;;;5035030;28;20164;-68
2022/04/17 07:33:59;;;;;;;9.02;6.05;;;12.50;91.80;;;;;;5036215;28;20140;-66
2022/04/17 07:36:25;;;;;;;8.88;5.72;;;12.50;92.10;;;;;;5018523;28;20125;-66
2022/04/17 07:38:51;;;;;;;10.63;6.07;;;12.50;91.90;;;;;;5023238;28;20455;-67
2022/04/17 07:41:16;;;;;;;8.50;6.07;;;12.60;91.60;;;;;;5016283;28;20046;-66
2022/04/17 07:43:42;;;;;;;9.57;5.88;;;12.80;90.70;;;;;;5015906;28;20052;-66
2022/04/17 07:46:08;;;;;;;7.63;5.80;;;12.60;90.90;;;;;;4982736;28;20482;-66
2022/04/17 07:48:34;;;;;;;9.98;6.28;;;12.80;90.70;;;;;;5007600;28;20049;-67
2022/04/17 07:50:59;;;;;;;8.80;5.55;;;12.80;90.30;;;;;;5035543;28;20053;-67
2022/04/17 07:53:25;;;;;;;9.75;6.38;;;12.70;89.40;;;;;;5018518;28;20041;-68
2022/04/17 07:55:50;;;;;;;8.43;5.68;;;12.90;90.70;;;;;;5035609;28;20041;-67
2022/04/17 07:58:31;;;;;;;9.70;5.82;;;12.90;90.30;;;;;;5017484;28;20057;-67
2022/04/17 08:00:59;;;;;;;8.25;5.78;;;13.00;89.60;;;;;;5017811;28;20049;-68
2022/04/17 08:03:46;;;;;;;8.43;5.05;;;13.00;88.80;;;;;;5034053;28;20117;-67
2022/04/17 08:06:17;;;;;;;9.02;5.32;;;13.10;87.40;;;;;;5034612;28;20080;-66
2022/04/17 08:08:44;;;;;;;8.85;5.28;;;13.10;88.50;;;;;;5025735;28;20443;-66
2022/04/17 08:11:10;;;;;;;7.65;4.60;;;13.20;87.90;;;;;;5018019;28;20060;-66
2022/04/17 08:13:36;;;;;;;8.18;4.60;;;13.30;87.00;;;;;;5018239;28;20055;-66
2022/04/17 08:16:04;;;;;;;6.88;4.53;;;13.30;86.60;;;;;;5011686;28;20446;-63
2022/04/17 08:18:33;;;;;;;5.97;4.30;;;13.40;86.40;;;;;;5021641;28;20453;-63
2022/04/17 08:21:00;;;;;;;6.97;4.45;;;13.50;86.40;;;;;;5034473;28;20038;-61
2022/04/17 08:23:26;;;;;;;7.90;4.70;;;13.60;85.60;;;;;;5016626;28;20037;-65
2022/04/17 08:25:52;;;;;;;10.05;4.55;;;13.50;84.50;;;;;;5034542;28;20068;-64
2022/04/17 08:28:17;;;;;;;8.27;4.60;;;13.60;85.80;;;;;;5016832;28;20478;-63
2022/04/17 08:30:43;;;;;;;8.13;4.90;;;13.80;86.40;;;;;;5017834;28;20124;-65
2022/04/17 08:33:09;;;;;;;8.45;4.63;;;13.70;84.60;;;;;;5017864;28;20348;-65
2022/04/17 08:35:35;;;;;;;6.30;4.60;;;13.70;84.10;;;;;;5035008;28;20042;-67
2022/04/17 08:38:01;;;;;;;7.82;4.57;;;13.50;83.60;;;;;;5017705;28;20045;-66
2022/04/17 08:40:27;;;;;;;7.32;4.97;;;13.60;84.50;;;;;;5034381;28;20060;-66
2022/04/17 08:42:54;;;;;;;8.07;4.68;;;13.80;84.30;;;;;;5033922;28;20037;-66
2022/04/17 08:45:20;;;;;;;7.47;4.55;;;13.80;85.10;;;;;;5050540;28;20049;-66
2022/04/17 08:47:47;;;;;;;6.68;4.75;;;14.00;84.60;;;;;;5049137;28;20454;-66
2022/04/17 08:50:18;;;;;;;6.47;4.55;;;14.10;84.70;;;;;;5033338;28;20095;-67
2022/04/17 08:52:49;;;;;;;8.13;4.57;;;14.20;84.10;;;;;;5034784;28;20033;-66
2022/04/17 08:55:15;;;;;;;7.28;4.90;;;14.30;82.80;;;;;;5034721;28;20088;-66
2022/04/17 08:57:42;;;;;;;8.20;4.72;;;14.30;82.10;;;;;;5034190;28;20428;-66
2022/04/17 09:00:10;;;;;;;6.72;4.20;;;14.30;82.70;;;;;;5034647;28;20200;-66
2022/04/17 09:02:36;;;;;;;8.48;4.60;;;14.20;82.10;;;;;;5017071;28;20041;-66
2022/04/17 09:05:13;;;;;;;8.10;4.68;;;14.30;82.70;;;;;;5016819;28;20128;-67
2022/04/17 09:07:48;;;;;;;9.27;4.53;;;14.40;81.60;;;;;;5016670;28;20541;-66
2022/04/17 09:10:27;;;;;;;7.82;4.47;;;14.60;81.70;;;;;;5017128;28;20045;-66
2022/04/17 09:12:54;;;;;;;6.88;4.65;;;14.50;81.80;;;;;;5034428;28;20033;-66
2022/04/17 09:15:34;;;;;;;6.43;4.18;;;14.40;80.00;;;;;;5016726;28;20041;-66
2022/04/17 09:18:00;;;;;;;7.88;4.38;;;14.50;81.60;;;;;;5016100;28;20068;-67
2022/04/17 09:20:27;;;;;;;8.77;4.68;;;14.60;81.80;;;;;;5016605;28;20044;-66
2022/04/17 09:23:01;;;;;;;7.20;4.30;;;14.60;80.10;;;;;;5016484;28;20037;-66
2022/04/17 09:25:27;;;;;;;;;;;14.70;81.50;;;;;;5017476;28;20033;-66
2022/04/17 09:28:08;;;;;;;7.85;5.00;;;14.70;81.10;;;;;;5016031;28;20392;-66
2022/04/17 09:30:39;;;;;;;6.65;4.05;;;14.80;81.00;;;;;;5016839;28;20048;-67
2022/04/17 09:33:15;;;;;;;6.95;4.55;;;14.90;81.50;;;;;;5016425;28;20080;-66
2022/04/17 09:35:52;;;;;;;8.48;4.57;;;14.80;81.20;;;;;;5016318;28;20099;-66
2022/04/17 09:38:23;;;;;;;8.00;4.40;;;14.90;80.60;;;;;;5015810;28;20037;-66
2022/04/17 09:40:49;;;;;;;7.07;4.55;;;15.00;80.80;;;;;;5016536;28;20087;-66
2022/04/17 09:43:17;;;;;;;6.32;4.50;;;14.90;80.70;;;;;;5033581;28;20099;-66
2022/04/17 09:45:56;;;;;;;8.43;4.55;;;14.90;79.70;;;;;;5033890;28;20071;-66
2022/04/17 09:48:21;;;;;;;7.70;4.78;;;15.00;80.10;;;;;;5008995;28;20120;-66
2022/04/17 09:50:47;;;;;;;7.63;4.72;;;15.10;80.00;;;;;;4997094;28;20452;-67
2022/04/17 09:53:29;;;;;;;6.90;4.45;;;15.00;80.80;;;;;;4996838;28;20077;-66
2022/04/17 09:56:07;;;;;;;7.57;4.32;;;15.20;80.70;;;;;;5016382;28;20045;-67
2022/04/17 09:58:48;;;;;;;7.65;4.82;;;15.40;80.50;;;;;;5008974;28;20070;-66
2022/04/17 10:01:18;;;;;;;12.63;5.10;;;15.50;79.20;;;;;;5038083;28;20107;-66
2022/04/17 10:03:45;;;;;;;6.50;4.53;;;15.30;78.50;;;;;;5020638;28;20038;-67
2022/04/17 10:06:11;;;;;;;6.32;4.20;;;15.50;80.00;;;;;;5020221;28;20374;-66
2022/04/17 10:08:39;;;;;;;7.40;4.72;;;15.50;79.70;;;;;;5028489;28;20046;-67
2022/04/17 10:11:06;;;;;;;9.50;4.60;;;15.60;79.20;;;;;;5018405;28;20133;-66
2022/04/17 10:13:35;;;;;;;8.43;3.97;;;15.80;77.70;;;;;;5000627;28;20045;-66
2022/04/17 10:16:03;;;;;;;8.25;4.50;;;15.80;76.50;;;;;;5000320;28;20053;-66
2022/04/17 10:18:34;;;;;;;8.02;4.78;;;15.80;75.90;;;;;;5007750;28;20037;-67
2022/04/17 10:21:03;;;;;;;8.77;4.97;;;16.00;76.70;;;;;;5019820;28;20740;-67
2022/04/17 10:23:30;;;;;;;6.85;4.40;;;16.00;76.00;;;;;;5020027;28;20064;-66
2022/04/17 10:26:01;;;;;;;7.13;4.57;;;16.10;76.20;;;;;;5019702;28;20052;-66
2022/04/17 10:28:32;;;;;;;6.88;4.68;;;16.00;76.10;;;;;;5029434;28;20064;-69
2022/04/17 10:31:19;;;;;;;6.07;4.07;;;15.80;73.30;;;;;;5000116;28;20095;-68
2022/04/17 10:34:07;;;;;;;7.50;4.10;;;16.00;73.50;;;;;;5000291;28;20057;-67
2022/04/17 10:36:59;;;;;;;7.68;4.55;;;16.10;74.30;;;;;;4999650;28;20038;-67
2022/04/17 10:39:38;;;;;;;6.60;4.00;;;16.20;73.50;;;;;;5032387;28;20052;-67
2022/04/17 10:42:09;;;;;;;6.53;4.47;;;16.30;74.20;;;;;;5003427;28;20459;-67
2022/04/17 10:44:41;;;;;;;7.30;4.13;;;16.30;74.00;;;;;;5036833;28;20479;-68
2022/04/17 10:47:15;;;;;;;7.55;4.05;;;16.30;74.10;;;;;;5019369;28;20053;-67
2022/04/17 10:50:07;;;;;;;6.47;4.15;;;16.40;72.70;;;;;;5021254;28;20467;-67
2022/04/17 10:52:37;;;;;;;6.85;4.32;;;16.60;72.90;;;;;;5038859;28;20136;-68
2022/04/17 10:55:11;;;;;;;6.45;3.80;;;16.70;71.90;;;;;;5019066;28;20033;-66
2022/04/17 10:57:46;;;;;;;;;;;16.80;71.50;;;;;;5018823;28;20052;-68
2022/04/17 11:00:28;;;;;;;6.80;3.50;;;16.70;68.00;;;;;;5018912;28;20016;-66
2022/04/17 11:03:01;;;;;;;5.88;3.88;;;16.90;69.40;;;;;;5036159;28;20037;-67
2022/04/17 11:08:25;;;;;;;6.18;4.15;;;16.90;68.60;;;;;;5028206;28;20034;-67
2022/04/17 11:11:02;;;;;;;6.10;4.22;;;16.70;68.40;;;;;;5016324;28;20053;-67
2022/04/17 11:13:28;;;;;;;7.43;4.25;;;16.70;68.70;;;;;;4998833;28;20045;-68
2022/04/17 11:15:59;;;;;;;6.00;4.13;;;16.90;68.20;;;;;;5015948;28;20052;-65
2022/04/17 11:18:28;;;;;;;5.78;3.88;;;16.80;67.40;;;;;;5004574;28;20033;-65
2022/04/17 11:20:55;;;;;;;7.20;4.30;;;16.90;67.70;;;;;;5018489;28;20040;-66
2022/04/17 11:23:48;;;;;;;5.97;4.05;;;17.00;67.50;;;;;;5018068;28;20053;-67
2022/04/17 11:26:14;;;;;;;6.93;4.22;;;16.90;67.40;;;;;;5035374;28;20139;-67
2022/04/17 11:28:40;;;;;;;5.53;3.88;;;16.90;68.00;;;;;;5017668;28;20116;-67
2022/04/17 11:31:07;;;;;;;5.95;4.28;;;17.00;68.50;;;;;;5017920;28;20120;-67
2022/04/17 11:33:33;;;;;;;9.50;4.10;;;17.00;66.90;;;;;;5017959;28;20045;-67
2022/04/17 11:35:59;;;;;;;8.50;4.20;;;17.10;66.40;;;;;;5017676;28;20053;-68
2022/04/17 11:38:25;;;;;;;7.70;5.00;;;17.20;66.60;;;;;;5017436;28;20037;-67
2022/04/17 11:40:50;;;;;;;5.57;3.97;;;17.30;65.30;;;;;;5017803;28;20120;-67
2022/04/17 11:43:17;;;;;;;7.10;3.83;;;17.50;65.20;;;;;;5017581;28;20049;-68
2022/04/17 11:45:46;;;;;;;5.30;3.70;;;17.50;64.40;;;;;;5001625;28;20124;-68
2022/04/17 11:48:17;;;;;;;5.22;3.55;;;17.60;64.20;;;;;;5034838;28;20049;-67
2022/04/17 11:50:43;;;;;;;5.07;3.70;;;17.50;63.50;;;;;;5001275;28;20133;-67
2022/04/17 11:53:14;;;;;;;5.25;3.53;;;17.40;62.80;;;;;;5017829;28;20056;-67
2022/04/17 11:55:42;;;;;;;6.03;3.63;;;17.50;63.20;;;;;;5017815;28;20033;-67
2022/04/17 11:58:12;;;;;;;6.53;3.80;;;17.50;62.20;;;;;;5016956;28;20067;-67
2022/04/17 12:00:38;;;;;;;6.07;3.40;;;17.50;60.70;;;;;;5017941;28;20056;-67
2022/04/17 12:03:08;;;;;;;6.75;3.70;;;17.50;60.70;;;;;;5017231;28;20395;-67
2022/04/17 12:05:36;;;;;;;6.32;3.60;;;17.50;61.50;;;;;;5035187;28;20052;-67
2022/04/17 12:08:11;;;;;;;6.47;3.58;;;17.50;60.20;;;;;;5013500;28;20125;-68
2022/04/17 12:10:42;;;;;;;5.03;3.15;;;17.50;59.60;;;;;;4998210;28;20141;-67
2022/04/17 12:13:20;;;;;;;4.15;2.70;;;17.60;60.00;;;;;;4981788;28;20466;-67
2022/04/17 12:15:57;;;;;;;6.90;3.47;;;17.70;56.80;;;;;;4997573;28;20121;-67
2022/04/17 12:18:22;;;;;;;4.75;2.92;;;17.80;55.00;;;;;;5002547;28;20044;-67
2022/04/17 12:21:03;;;;;;;5.50;3.20;;;17.90;57.00;;;;;;5035032;28;20041;-67
2022/04/17 12:23:29;;;;;;;7.75;3.72;;;17.80;54.50;;;;;;5017136;28;20041;-67
2022/04/17 12:25:56;;;;;;;5.22;3.20;;;17.80;56.20;;;;;;5017335;28;20081;-68
2022/04/17 12:28:22;;;;;;;5.65;3.35;;;17.90;56.70;;;;;;5016513;28;20095;-67
2022/04/17 12:30:48;;;;;;;4.10;3.08;;;17.80;56.10;;;;;;5017072;28;20191;-67
2022/04/17 12:33:22;;;;;;;5.30;3.50;;;18.00;56.70;;;;;;5034324;28;20514;-66
2022/04/17 12:36:12;;;;;;;5.93;3.53;;;17.80;54.70;;;;;;5016723;28;20395;-67
2022/04/17 12:38:40;;;;;;;6.65;3.53;;;17.90;54.70;;;;;;5016565;28;20037;-67
2022/04/17 12:41:24;;;;;;;5.72;3.30;;;17.70;55.50;;;;;;5034604;28;20359;-67
2022/04/17 12:43:50;;;;;;;5.72;3.85;;;17.80;57.50;;;;;;5034127;28;20046;-68
2022/04/17 12:46:30;;;;;;;5.90;3.92;;;17.70;57.30;;;;;;5016178;28;20061;-67
2022/04/17 12:49:14;;;;;;;5.55;3.70;;;17.60;57.10;;;;;;5034171;28;20116;-67
2022/04/17 12:51:52;;;;;;;5.37;3.67;;;17.80;58.00;;;;;;5016880;28;20472;-67
2022/04/17 12:54:18;;;;;;;7.50;3.80;;;17.90;57.20;;;;;;5016720;28;20284;-67
2022/04/17 12:56:44;;;;;;;5.15;3.47;;;17.90;56.50;;;;;;5016104;28;20038;-67
2022/04/17 12:59:11;;;;;;;5.35;3.58;;;18.00;57.00;;;;;;5000288;28;20370;-67
2022/04/17 13:01:45;;;;;;;6.03;3.80;;;18.00;55.50;;;;;;5034209;28;20045;-67
2022/04/17 13:04:12;;;;;;;;;;;17.90;56.10;;;;;;5016831;28;20041;-67
2022/04/17 13:06:39;;;;;;;6.00;3.45;;;17.80;56.00;;;;;;5016158;28;19929;-67
2022/04/17 13:09:12;;;;;;;5.45;3.58;;;18.00;55.70;;;;;;4988975;28;20477;-66